sensor_id;sensor_type;location;lat;lon;timestamp;P1;durP1;ratioP1;P2;durP2;ratioP2
67156;SDS011;54086;50.126;8.710;2023-11-18T00:00:19;26.75;;;13.38;;
67156;SDS011;54086;50.126;8.710;2023-11-18T00:02:45;28.70;;;14.10;;
67156;SDS011;54086;50.126;8.710;2023-11-18T00:05:11;26.13;;;13.35;;
67156;SDS011;54086;50.126;8.710;2023-11-18T00:07:37;26.73;;;13.90;;
67156;SDS011;54086;50.126;8.710;2023-11-18T00:10:03;26.58;;;14.82;;
67156;SDS011;54086;50.126;8.710;2023-11-18T00:12:29;23.67;;;12.70;;
67156;SDS011;54086;50.126;8.710;2023-11-18T00:14:55;24.07;;;13.40;;
67156;SDS011;54086;50.126;8.710;2023-11-18T00:17:20;27.60;;;14.30;;
67156;SDS011;54086;50.126;8.710;2023-11-18T00:19:46;24.80;;;14.02;;
67156;SDS011;54086;50.126;8.710;2023-11-18T00:22:14;27.83;;;13.17;;
67156;SDS011;54086;50.126;8.710;2023-11-18T00:24:39;29.02;;;14.50;;
67156;SDS011;54086;50.126;8.710;2023-11-18T00:27:05;26.00;;;13.90;;
67156;SDS011;54086;50.126;8.710;2023-11-18T00:29:34;26.27;;;14.45;;
67156;SDS011;54086;50.126;8.710;2023-11-18T00:32:00;27.27;;;13.83;;
67156;SDS011;54086;50.126;8.710;2023-11-18T00:34:26;24.15;;;12.57;;
67156;SDS011;54086;50.126;8.710;2023-11-18T00:36:53;24.00;;;13.05;;
67156;SDS011;54086;50.126;8.710;2023-11-18T00:39:18;25.93;;;13.67;;
67156;SDS011;54086;50.126;8.710;2023-11-18T00:41:45;25.95;;;14.65;;
67156;SDS011;54086;50.126;8.710;2023-11-18T00:44:10;23.33;;;13.03;;
67156;SDS011;54086;50.126;8.710;2023-11-18T00:46:38;24.35;;;12.98;;
67156;SDS011;54086;50.126;8.710;2023-11-18T00:49:03;24.20;;;12.83;;
67156;SDS011;54086;50.126;8.710;2023-11-18T00:51:31;26.00;;;13.57;;
67156;SDS011;54086;50.126;8.710;2023-11-18T00:53:56;25.50;;;12.52;;
67156;SDS011;54086;50.126;8.710;2023-11-18T00:56:23;24.95;;;14.63;;
67156;SDS011;54086;50.126;8.710;2023-11-18T00:58:48;24.83;;;13.77;;
67156;SDS011;54086;50.126;8.710;2023-11-18T01:01:14;27.73;;;13.88;;
67156;SDS011;54086;50.126;8.710;2023-11-18T01:03:43;25.47;;;14.07;;
67156;SDS011;54086;50.126;8.710;2023-11-18T01:06:12;26.15;;;14.05;;
67156;SDS011;54086;50.126;8.710;2023-11-18T01:08:37;22.92;;;13.95;;
67156;SDS011;54086;50.126;8.710;2023-11-18T01:11:03;24.33;;;14.13;;
67156;SDS011;54086;50.126;8.710;2023-11-18T01:13:29;24.50;;;13.45;;
67156;SDS011;54086;50.126;8.710;2023-11-18T01:15:56;23.58;;;13.32;;
67156;SDS011;54086;50.126;8.710;2023-11-18T01:18:21;24.10;;;12.80;;
67156;SDS011;54086;50.126;8.710;2023-11-18T01:20:47;22.73;;;12.85;;
67156;SDS011;54086;50.126;8.710;2023-11-18T01:23:12;21.23;;;12.40;;
67156;SDS011;54086;50.126;8.710;2023-11-18T01:25:37;19.97;;;11.83;;
67156;SDS011;54086;50.126;8.710;2023-11-18T01:28:05;23.70;;;13.07;;
67156;SDS011;54086;50.126;8.710;2023-11-18T01:30:31;23.77;;;13.30;;
67156;SDS011;54086;50.126;8.710;2023-11-18T01:32:57;25.07;;;13.10;;
67156;SDS011;54086;50.126;8.710;2023-11-18T01:35:25;21.85;;;13.05;;
67156;SDS011;54086;50.126;8.710;2023-11-18T01:37:51;23.27;;;13.32;;
67156;SDS011;54086;50.126;8.710;2023-11-18T01:40:17;23.87;;;12.97;;
67156;SDS011;54086;50.126;8.710;2023-11-18T01:42:43;24.25;;;13.30;;
67156;SDS011;54086;50.126;8.710;2023-11-18T01:45:11;24.90;;;12.57;;
67156;SDS011;54086;50.126;8.710;2023-11-18T01:47:37;24.10;;;13.18;;
67156;SDS011;54086;50.126;8.710;2023-11-18T01:50:05;23.48;;;12.88;;
67156;SDS011;54086;50.126;8.710;2023-11-18T01:52:32;24.02;;;13.38;;
67156;SDS011;54086;50.126;8.710;2023-11-18T01:54:58;27.13;;;14.20;;
67156;SDS011;54086;50.126;8.710;2023-11-18T01:57:24;25.92;;;15.30;;
67156;SDS011;54086;50.126;8.710;2023-11-18T01:59:52;29.15;;;14.43;;
67156;SDS011;54086;50.126;8.710;2023-11-18T02:02:18;27.65;;;15.43;;
67156;SDS011;54086;50.126;8.710;2023-11-18T02:04:46;25.23;;;14.15;;
67156;SDS011;54086;50.126;8.710;2023-11-18T02:07:12;28.30;;;15.60;;
67156;SDS011;54086;50.126;8.710;2023-11-18T02:09:40;30.80;;;16.50;;
67156;SDS011;54086;50.126;8.710;2023-11-18T02:12:23;26.48;;;15.50;;
67156;SDS011;54086;50.126;8.710;2023-11-18T02:15:08;28.85;;;16.20;;
67156;SDS011;54086;50.126;8.710;2023-11-18T02:17:38;28.00;;;15.25;;
67156;SDS011;54086;50.126;8.710;2023-11-18T02:20:04;23.43;;;14.40;;
67156;SDS011;54086;50.126;8.710;2023-11-18T02:22:40;28.20;;;14.73;;
67156;SDS011;54086;50.126;8.710;2023-11-18T02:25:15;22.63;;;12.20;;
67156;SDS011;54086;50.126;8.710;2023-11-18T02:27:41;21.00;;;12.73;;
67156;SDS011;54086;50.126;8.710;2023-11-18T02:30:08;24.08;;;13.00;;
67156;SDS011;54086;50.126;8.710;2023-11-18T02:32:39;23.67;;;13.27;;
67156;SDS011;54086;50.126;8.710;2023-11-18T02:38:14;22.17;;;12.70;;
67156;SDS011;54086;50.126;8.710;2023-11-18T02:40:48;22.52;;;11.75;;
67156;SDS011;54086;50.126;8.710;2023-11-18T02:43:18;20.27;;;10.07;;
67156;SDS011;54086;50.126;8.710;2023-11-18T02:45:44;20.27;;;10.57;;
67156;SDS011;54086;50.126;8.710;2023-11-18T02:48:11;19.67;;;11.10;;
67156;SDS011;54086;50.126;8.710;2023-11-18T02:50:38;17.80;;;9.73;;
67156;SDS011;54086;50.126;8.710;2023-11-18T02:53:06;17.73;;;9.90;;
67156;SDS011;54086;50.126;8.710;2023-11-18T02:55:34;17.63;;;9.60;;
67156;SDS011;54086;50.126;8.710;2023-11-18T02:58:01;18.33;;;10.07;;
67156;SDS011;54086;50.126;8.710;2023-11-18T03:00:27;18.75;;;10.80;;
67156;SDS011;54086;50.126;8.710;2023-11-18T03:02:53;17.75;;;10.15;;
67156;SDS011;54086;50.126;8.710;2023-11-18T03:05:19;17.13;;;10.03;;
67156;SDS011;54086;50.126;8.710;2023-11-18T03:07:46;20.50;;;9.77;;
67156;SDS011;54086;50.126;8.710;2023-11-18T03:10:17;23.58;;;9.90;;
67156;SDS011;54086;50.126;8.710;2023-11-18T03:12:46;26.98;;;9.70;;
67156;SDS011;54086;50.126;8.710;2023-11-18T03:15:17;34.83;;;10.48;;
67156;SDS011;54086;50.126;8.710;2023-11-18T03:17:45;18.80;;;9.37;;
67156;SDS011;54086;50.126;8.710;2023-11-18T03:20:13;27.55;;;10.10;;
67156;SDS011;54086;50.126;8.710;2023-11-18T03:22:42;15.70;;;8.63;;
67156;SDS011;54086;50.126;8.710;2023-11-18T03:25:13;18.33;;;9.30;;
67156;SDS011;54086;50.126;8.710;2023-11-18T03:27:39;42.57;;;9.33;;
67156;SDS011;54086;50.126;8.710;2023-11-18T03:30:05;36.40;;;9.27;;
67156;SDS011;54086;50.126;8.710;2023-11-18T03:32:34;25.90;;;9.73;;
67156;SDS011;54086;50.126;8.710;2023-11-18T03:35:04;33.43;;;9.17;;
67156;SDS011;54086;50.126;8.710;2023-11-18T03:37:36;24.80;;;9.23;;
67156;SDS011;54086;50.126;8.710;2023-11-18T03:40:08;42.60;;;10.50;;
67156;SDS011;54086;50.126;8.710;2023-11-18T03:42:35;22.52;;;8.80;;
67156;SDS011;54086;50.126;8.710;2023-11-18T03:45:00;28.88;;;8.18;;
67156;SDS011;54086;50.126;8.710;2023-11-18T03:47:26;26.30;;;9.23;;
67156;SDS011;54086;50.126;8.710;2023-11-18T03:49:52;26.13;;;8.85;;
67156;SDS011;54086;50.126;8.710;2023-11-18T03:52:19;30.37;;;9.50;;
67156;SDS011;54086;50.126;8.710;2023-11-18T03:54:44;38.90;;;9.68;;
67156;SDS011;54086;50.126;8.710;2023-11-18T03:57:10;37.13;;;9.73;;
67156;SDS011;54086;50.126;8.710;2023-11-18T03:59:35;17.97;;;8.63;;
67156;SDS011;54086;50.126;8.710;2023-11-18T04:02:01;27.15;;;9.77;;
67156;SDS011;54086;50.126;8.710;2023-11-18T04:04:26;23.77;;;9.03;;
67156;SDS011;54086;50.126;8.710;2023-11-18T04:06:52;20.47;;;9.00;;
67156;SDS011;54086;50.126;8.710;2023-11-18T04:09:17;26.65;;;10.13;;
67156;SDS011;54086;50.126;8.710;2023-11-18T04:11:43;21.90;;;8.80;;
67156;SDS011;54086;50.126;8.710;2023-11-18T04:14:10;26.50;;;10.52;;
67156;SDS011;54086;50.126;8.710;2023-11-18T04:16:35;29.70;;;10.40;;
67156;SDS011;54086;50.126;8.710;2023-11-18T04:19:03;32.03;;;10.18;;
67156;SDS011;54086;50.126;8.710;2023-11-18T04:21:28;28.73;;;10.55;;
67156;SDS011;54086;50.126;8.710;2023-11-18T04:23:54;27.43;;;11.23;;
67156;SDS011;54086;50.126;8.710;2023-11-18T04:26:20;36.83;;;10.25;;
67156;SDS011;54086;50.126;8.710;2023-11-18T04:28:45;23.60;;;9.83;;
67156;SDS011;54086;50.126;8.710;2023-11-18T04:31:11;30.40;;;10.48;;
67156;SDS011;54086;50.126;8.710;2023-11-18T04:33:36;25.90;;;10.80;;
67156;SDS011;54086;50.126;8.710;2023-11-18T04:36:02;28.60;;;10.70;;
67156;SDS011;54086;50.126;8.710;2023-11-18T04:38:27;28.40;;;11.27;;
67156;SDS011;54086;50.126;8.710;2023-11-18T04:40:53;30.40;;;10.40;;
67156;SDS011;54086;50.126;8.710;2023-11-18T04:43:19;51.45;;;11.35;;
67156;SDS011;54086;50.126;8.710;2023-11-18T04:45:45;31.33;;;10.67;;
67156;SDS011;54086;50.126;8.710;2023-11-18T04:48:11;31.48;;;12.15;;
67156;SDS011;54086;50.126;8.710;2023-11-18T04:50:38;24.38;;;11.35;;
67156;SDS011;54086;50.126;8.710;2023-11-18T04:53:04;28.05;;;11.25;;
67156;SDS011;54086;50.126;8.710;2023-11-18T04:55:33;24.73;;;10.90;;
67156;SDS011;54086;50.126;8.710;2023-11-18T04:58:00;23.77;;;11.03;;
67156;SDS011;54086;50.126;8.710;2023-11-18T05:00:25;24.73;;;11.45;;
67156;SDS011;54086;50.126;8.710;2023-11-18T05:02:51;23.70;;;11.37;;
67156;SDS011;54086;50.126;8.710;2023-11-18T05:05:16;26.53;;;11.10;;
67156;SDS011;54086;50.126;8.710;2023-11-18T05:07:42;22.02;;;10.43;;
67156;SDS011;54086;50.126;8.710;2023-11-18T05:10:09;19.17;;;9.88;;
67156;SDS011;54086;50.126;8.710;2023-11-18T05:12:38;24.42;;;10.65;;
67156;SDS011;54086;50.126;8.710;2023-11-18T05:15:04;24.05;;;10.07;;
67156;SDS011;54086;50.126;8.710;2023-11-18T05:17:32;22.13;;;9.97;;
67156;SDS011;54086;50.126;8.710;2023-11-18T05:20:04;24.15;;;9.68;;
67156;SDS011;54086;50.126;8.710;2023-11-18T05:22:34;21.42;;;10.07;;
67156;SDS011;54086;50.126;8.710;2023-11-18T05:25:01;23.48;;;10.57;;
67156;SDS011;54086;50.126;8.710;2023-11-18T05:27:27;27.30;;;11.27;;
67156;SDS011;54086;50.126;8.710;2023-11-18T05:29:52;23.95;;;11.50;;
67156;SDS011;54086;50.126;8.710;2023-11-18T05:32:24;26.30;;;12.47;;
67156;SDS011;54086;50.126;8.710;2023-11-18T05:34:52;24.40;;;10.02;;
67156;SDS011;54086;50.126;8.710;2023-11-18T05:37:23;32.83;;;10.73;;
67156;SDS011;54086;50.126;8.710;2023-11-18T05:39:49;27.25;;;11.15;;
67156;SDS011;54086;50.126;8.710;2023-11-18T05:42:23;23.88;;;11.40;;
67156;SDS011;54086;50.126;8.710;2023-11-18T05:44:50;25.37;;;11.30;;
67156;SDS011;54086;50.126;8.710;2023-11-18T05:47:23;33.63;;;10.98;;
67156;SDS011;54086;50.126;8.710;2023-11-18T05:49:48;25.33;;;10.23;;
67156;SDS011;54086;50.126;8.710;2023-11-18T05:52:14;22.40;;;10.30;;
67156;SDS011;54086;50.126;8.710;2023-11-18T05:54:39;22.27;;;10.83;;
67156;SDS011;54086;50.126;8.710;2023-11-18T05:57:04;25.60;;;10.33;;
67156;SDS011;54086;50.126;8.710;2023-11-18T05:59:30;21.77;;;10.10;;
67156;SDS011;54086;50.126;8.710;2023-11-18T06:01:56;26.73;;;10.47;;
67156;SDS011;54086;50.126;8.710;2023-11-18T06:04:22;26.08;;;10.35;;
67156;SDS011;54086;50.126;8.710;2023-11-18T06:06:47;23.17;;;10.20;;
67156;SDS011;54086;50.126;8.710;2023-11-18T06:09:12;26.53;;;10.60;;
67156;SDS011;54086;50.126;8.710;2023-11-18T06:11:45;24.48;;;10.85;;
67156;SDS011;54086;50.126;8.710;2023-11-18T06:14:11;25.85;;;10.43;;
67156;SDS011;54086;50.126;8.710;2023-11-18T06:16:37;26.42;;;10.90;;
67156;SDS011;54086;50.126;8.710;2023-11-18T06:19:04;24.98;;;9.75;;
67156;SDS011;54086;50.126;8.710;2023-11-18T06:21:31;23.03;;;10.57;;
67156;SDS011;54086;50.126;8.710;2023-11-18T06:23:59;24.85;;;11.25;;
67156;SDS011;54086;50.126;8.710;2023-11-18T06:26:26;29.10;;;11.57;;
67156;SDS011;54086;50.126;8.710;2023-11-18T06:28:52;28.07;;;11.20;;
67156;SDS011;54086;50.126;8.710;2023-11-18T06:31:18;24.98;;;11.05;;
67156;SDS011;54086;50.126;8.710;2023-11-18T06:33:46;29.83;;;12.13;;
67156;SDS011;54086;50.126;8.710;2023-11-18T06:38:44;27.40;;;11.10;;
67156;SDS011;54086;50.126;8.710;2023-11-18T06:41:11;29.50;;;11.75;;
67156;SDS011;54086;50.126;8.710;2023-11-18T06:43:38;27.33;;;11.70;;
67156;SDS011;54086;50.126;8.710;2023-11-18T06:46:14;30.90;;;11.82;;
67156;SDS011;54086;50.126;8.710;2023-11-18T06:48:39;29.90;;;12.83;;
67156;SDS011;54086;50.126;8.710;2023-11-18T06:51:05;33.10;;;12.70;;
67156;SDS011;54086;50.126;8.710;2023-11-18T06:53:33;28.88;;;11.90;;
67156;SDS011;54086;50.126;8.710;2023-11-18T06:55:58;30.63;;;12.10;;
67156;SDS011;54086;50.126;8.710;2023-11-18T06:58:24;27.47;;;11.80;;
67156;SDS011;54086;50.126;8.710;2023-11-18T07:00:49;28.93;;;11.87;;
67156;SDS011;54086;50.126;8.710;2023-11-18T07:03:14;36.03;;;12.63;;
67156;SDS011;54086;50.126;8.710;2023-11-18T07:05:42;36.17;;;12.53;;
67156;SDS011;54086;50.126;8.710;2023-11-18T07:08:09;35.65;;;12.82;;
67156;SDS011;54086;50.126;8.710;2023-11-18T07:10:34;38.08;;;13.20;;
67156;SDS011;54086;50.126;8.710;2023-11-18T07:13:01;34.73;;;12.27;;
67156;SDS011;54086;50.126;8.710;2023-11-18T07:15:26;37.78;;;12.55;;
67156;SDS011;54086;50.126;8.710;2023-11-18T07:17:52;35.43;;;13.27;;
67156;SDS011;54086;50.126;8.710;2023-11-18T07:20:17;35.93;;;13.00;;
67156;SDS011;54086;50.126;8.710;2023-11-18T07:22:43;49.63;;;13.87;;
67156;SDS011;54086;50.126;8.710;2023-11-18T07:25:08;35.93;;;12.93;;
67156;SDS011;54086;50.126;8.710;2023-11-18T07:27:34;35.65;;;12.63;;
67156;SDS011;54086;50.126;8.710;2023-11-18T07:30:01;35.65;;;12.57;;
67156;SDS011;54086;50.126;8.710;2023-11-18T07:32:26;38.20;;;13.93;;
67156;SDS011;54086;50.126;8.710;2023-11-18T07:34:51;40.70;;;15.00;;
67156;SDS011;54086;50.126;8.710;2023-11-18T07:37:17;42.50;;;14.10;;
67156;SDS011;54086;50.126;8.710;2023-11-18T07:39:42;45.43;;;13.70;;
67156;SDS011;54086;50.126;8.710;2023-11-18T07:42:14;39.17;;;13.70;;
67156;SDS011;54086;50.126;8.710;2023-11-18T07:44:50;39.67;;;13.17;;
67156;SDS011;54086;50.126;8.710;2023-11-18T07:47:16;42.22;;;13.85;;
67156;SDS011;54086;50.126;8.710;2023-11-18T07:49:42;37.03;;;12.57;;
67156;SDS011;54086;50.126;8.710;2023-11-18T07:52:07;40.80;;;13.55;;
67156;SDS011;54086;50.126;8.710;2023-11-18T07:54:33;40.77;;;13.43;;
67156;SDS011;54086;50.126;8.710;2023-11-18T07:56:58;44.23;;;13.00;;
67156;SDS011;54086;50.126;8.710;2023-11-18T07:59:24;42.95;;;12.00;;
67156;SDS011;54086;50.126;8.710;2023-11-18T08:01:49;43.27;;;12.83;;
67156;SDS011;54086;50.126;8.710;2023-11-18T08:04:15;32.93;;;11.70;;
67156;SDS011;54086;50.126;8.710;2023-11-18T08:06:40;35.25;;;12.13;;
67156;SDS011;54086;50.126;8.710;2023-11-18T08:09:08;43.23;;;13.43;;
67156;SDS011;54086;50.126;8.710;2023-11-18T08:11:38;43.42;;;12.25;;
67156;SDS011;54086;50.126;8.710;2023-11-18T08:14:06;36.45;;;12.52;;
67156;SDS011;54086;50.126;8.710;2023-11-18T08:16:33;39.55;;;12.02;;
67156;SDS011;54086;50.126;8.710;2023-11-18T08:18:58;51.27;;;13.80;;
67156;SDS011;54086;50.126;8.710;2023-11-18T08:21:24;41.83;;;13.35;;
67156;SDS011;54086;50.126;8.710;2023-11-18T08:23:49;40.03;;;12.40;;
67156;SDS011;54086;50.126;8.710;2023-11-18T08:26:15;58.27;;;24.10;;
67156;SDS011;54086;50.126;8.710;2023-11-18T08:28:40;38.07;;;12.50;;
67156;SDS011;54086;50.126;8.710;2023-11-18T08:31:06;40.63;;;14.30;;
67156;SDS011;54086;50.126;8.710;2023-11-18T08:33:32;39.53;;;12.47;;
67156;SDS011;54086;50.126;8.710;2023-11-18T08:35:58;38.88;;;11.73;;
67156;SDS011;54086;50.126;8.710;2023-11-18T08:38:23;34.63;;;12.25;;
67156;SDS011;54086;50.126;8.710;2023-11-18T08:40:49;32.97;;;11.50;;
67156;SDS011;54086;50.126;8.710;2023-11-18T08:43:16;35.30;;;12.32;;
67156;SDS011;54086;50.126;8.710;2023-11-18T08:45:42;43.17;;;12.83;;
67156;SDS011;54086;50.126;8.710;2023-11-18T08:48:07;38.20;;;12.67;;
67156;SDS011;54086;50.126;8.710;2023-11-18T08:50:33;33.90;;;12.07;;
67156;SDS011;54086;50.126;8.710;2023-11-18T08:53:00;38.00;;;12.83;;
67156;SDS011;54086;50.126;8.710;2023-11-18T08:55:29;33.58;;;12.75;;
67156;SDS011;54086;50.126;8.710;2023-11-18T08:58:06;39.90;;;13.30;;
67156;SDS011;54086;50.126;8.710;2023-11-18T09:00:46;36.58;;;12.27;;
67156;SDS011;54086;50.126;8.710;2023-11-18T09:03:19;43.05;;;13.43;;
67156;SDS011;54086;50.126;8.710;2023-11-18T09:06:09;37.10;;;12.37;;
67156;SDS011;54086;50.126;8.710;2023-11-18T09:08:50;38.08;;;12.85;;
67156;SDS011;54086;50.126;8.710;2023-11-18T09:11:20;34.85;;;12.35;;
67156;SDS011;54086;50.126;8.710;2023-11-18T09:13:52;35.75;;;13.45;;
67156;SDS011;54086;50.126;8.710;2023-11-18T09:16:22;40.53;;;13.48;;
67156;SDS011;54086;50.126;8.710;2023-11-18T09:18:50;39.77;;;12.43;;
67156;SDS011;54086;50.126;8.710;2023-11-18T09:21:16;39.10;;;13.27;;
67156;SDS011;54086;50.126;8.710;2023-11-18T09:23:45;37.63;;;13.15;;
67156;SDS011;54086;50.126;8.710;2023-11-18T09:26:13;35.60;;;12.07;;
67156;SDS011;54086;50.126;8.710;2023-11-18T09:28:39;38.15;;;13.52;;
67156;SDS011;54086;50.126;8.710;2023-11-18T09:31:05;35.50;;;13.77;;
67156;SDS011;54086;50.126;8.710;2023-11-18T09:33:36;37.05;;;13.10;;
67156;SDS011;54086;50.126;8.710;2023-11-18T09:36:07;36.10;;;15.48;;
67156;SDS011;54086;50.126;8.710;2023-11-18T09:38:37;35.38;;;12.73;;
67156;SDS011;54086;50.126;8.710;2023-11-18T09:41:06;34.30;;;12.55;;
67156;SDS011;54086;50.126;8.710;2023-11-18T09:43:36;33.50;;;13.30;;
67156;SDS011;54086;50.126;8.710;2023-11-18T09:46:10;32.85;;;12.75;;
67156;SDS011;54086;50.126;8.710;2023-11-18T09:48:43;28.42;;;11.82;;
67156;SDS011;54086;50.126;8.710;2023-11-18T09:51:20;35.05;;;12.35;;
67156;SDS011;54086;50.126;8.710;2023-11-18T09:53:48;32.17;;;11.98;;
67156;SDS011;54086;50.126;8.710;2023-11-18T09:59:07;33.20;;;12.25;;
67156;SDS011;54086;50.126;8.710;2023-11-18T10:01:40;34.95;;;12.88;;
67156;SDS011;54086;50.126;8.710;2023-11-18T10:04:09;28.55;;;11.75;;
67156;SDS011;54086;50.126;8.710;2023-11-18T10:06:36;30.77;;;11.77;;
67156;SDS011;54086;50.126;8.710;2023-11-18T10:09:04;31.43;;;12.93;;
67156;SDS011;54086;50.126;8.710;2023-11-18T10:11:40;28.13;;;12.18;;
67156;SDS011;54086;50.126;8.710;2023-11-18T10:14:07;31.55;;;12.65;;
67156;SDS011;54086;50.126;8.710;2023-11-18T10:16:33;34.85;;;13.40;;
67156;SDS011;54086;50.126;8.710;2023-11-18T10:18:59;30.33;;;12.63;;
67156;SDS011;54086;50.126;8.710;2023-11-18T10:21:36;30.38;;;13.13;;
67156;SDS011;54086;50.126;8.710;2023-11-18T10:24:05;29.02;;;12.35;;
67156;SDS011;54086;50.126;8.710;2023-11-18T10:26:39;31.27;;;12.70;;
67156;SDS011;54086;50.126;8.710;2023-11-18T10:29:20;28.67;;;11.63;;
67156;SDS011;54086;50.126;8.710;2023-11-18T10:31:45;32.95;;;13.68;;
67156;SDS011;54086;50.126;8.710;2023-11-18T10:34:12;32.80;;;13.20;;
67156;SDS011;54086;50.126;8.710;2023-11-18T10:36:40;30.48;;;13.70;;
67156;SDS011;54086;50.126;8.710;2023-11-18T10:39:06;29.02;;;12.05;;
67156;SDS011;54086;50.126;8.710;2023-11-18T10:41:39;30.77;;;13.50;;
67156;SDS011;54086;50.126;8.710;2023-11-18T10:44:07;35.00;;;14.02;;
67156;SDS011;54086;50.126;8.710;2023-11-18T10:46:34;32.35;;;13.75;;
67156;SDS011;54086;50.126;8.710;2023-11-18T10:49:01;28.88;;;13.20;;
67156;SDS011;54086;50.126;8.710;2023-11-18T10:51:27;30.92;;;13.45;;
67156;SDS011;54086;50.126;8.710;2023-11-18T10:53:55;30.97;;;13.87;;
67156;SDS011;54086;50.126;8.710;2023-11-18T10:56:26;31.08;;;14.13;;
67156;SDS011;54086;50.126;8.710;2023-11-18T10:58:53;33.05;;;13.38;;
67156;SDS011;54086;50.126;8.710;2023-11-18T11:01:28;32.50;;;14.35;;
67156;SDS011;54086;50.126;8.710;2023-11-18T11:03:57;31.30;;;14.70;;
67156;SDS011;54086;50.126;8.710;2023-11-18T11:06:26;31.93;;;13.33;;
67156;SDS011;54086;50.126;8.710;2023-11-18T11:08:55;30.35;;;14.60;;
67156;SDS011;54086;50.126;8.710;2023-11-18T11:11:23;30.27;;;14.50;;
67156;SDS011;54086;50.126;8.710;2023-11-18T11:13:58;30.38;;;14.50;;
67156;SDS011;54086;50.126;8.710;2023-11-18T11:16:33;27.85;;;13.82;;
67156;SDS011;54086;50.126;8.710;2023-11-18T11:19:08;27.77;;;13.33;;
67156;SDS011;54086;50.126;8.710;2023-11-18T11:22:06;29.27;;;14.18;;
67156;SDS011;54086;50.126;8.710;2023-11-18T11:24:40;33.20;;;14.27;;
67156;SDS011;54086;50.126;8.710;2023-11-18T11:27:14;29.77;;;13.25;;
67156;SDS011;54086;50.126;8.710;2023-11-18T11:30:02;28.27;;;13.05;;
67156;SDS011;54086;50.126;8.710;2023-11-18T11:32:39;28.03;;;14.17;;
67156;SDS011;54086;50.126;8.710;2023-11-18T11:35:14;30.63;;;13.80;;
67156;SDS011;54086;50.126;8.710;2023-11-18T11:37:46;27.17;;;13.20;;
67156;SDS011;54086;50.126;8.710;2023-11-18T11:40:13;29.80;;;13.00;;
67156;SDS011;54086;50.126;8.710;2023-11-18T11:42:46;30.80;;;14.50;;
67156;SDS011;54086;50.126;8.710;2023-11-18T11:45:19;27.03;;;13.37;;
67156;SDS011;54086;50.126;8.710;2023-11-18T11:47:48;25.35;;;13.07;;
67156;SDS011;54086;50.126;8.710;2023-11-18T11:50:19;27.50;;;13.02;;
67156;SDS011;54086;50.126;8.710;2023-11-18T11:53:04;22.98;;;11.57;;
67156;SDS011;54086;50.126;8.710;2023-11-18T11:55:44;23.70;;;13.00;;
67156;SDS011;54086;50.126;8.710;2023-11-18T11:58:25;28.00;;;13.00;;
67156;SDS011;54086;50.126;8.710;2023-11-18T12:00:51;28.23;;;12.48;;
67156;SDS011;54086;50.126;8.710;2023-11-18T12:03:19;25.98;;;13.05;;
67156;SDS011;54086;50.126;8.710;2023-11-18T12:05:48;24.02;;;11.93;;
67156;SDS011;54086;50.126;8.710;2023-11-18T12:08:21;24.88;;;12.15;;
67156;SDS011;54086;50.126;8.710;2023-11-18T12:10:51;28.77;;;12.67;;
67156;SDS011;54086;50.126;8.710;2023-11-18T12:13:23;23.70;;;11.57;;
67156;SDS011;54086;50.126;8.710;2023-11-18T12:18:28;25.88;;;11.95;;
67156;SDS011;54086;50.126;8.710;2023-11-18T12:20:56;22.55;;;11.82;;
67156;SDS011;54086;50.126;8.710;2023-11-18T12:26:50;23.15;;;11.18;;
67156;SDS011;54086;50.126;8.710;2023-11-18T12:29:33;24.83;;;12.37;;
67156;SDS011;54086;50.126;8.710;2023-11-18T12:31:59;27.70;;;11.70;;
67156;SDS011;54086;50.126;8.710;2023-11-18T12:34:24;22.70;;;11.20;;
67156;SDS011;54086;50.126;8.710;2023-11-18T12:37:33;21.37;;;10.97;;
67156;SDS011;54086;50.126;8.710;2023-11-18T12:46:12;23.20;;;11.45;;
67156;SDS011;54086;50.126;8.710;2023-11-18T12:48:26;23.20;;;11.95;;
67156;SDS011;54086;50.126;8.710;2023-11-18T12:50:57;24.63;;;11.67;;
67156;SDS011;54086;50.126;8.710;2023-11-18T12:53:24;23.27;;;11.38;;
67156;SDS011;54086;50.126;8.710;2023-11-18T12:55:50;19.88;;;11.02;;
67156;SDS011;54086;50.126;8.710;2023-11-18T12:58:17;20.20;;;11.38;;
67156;SDS011;54086;50.126;8.710;2023-11-18T13:00:43;22.30;;;11.33;;
67156;SDS011;54086;50.126;8.710;2023-11-18T13:03:10;21.85;;;10.75;;
67156;SDS011;54086;50.126;8.710;2023-11-18T13:08:04;20.20;;;10.87;;
67156;SDS011;54086;50.126;8.710;2023-11-18T13:10:29;23.30;;;11.40;;
67156;SDS011;54086;50.126;8.710;2023-11-18T13:12:56;21.77;;;11.15;;
67156;SDS011;54086;50.126;8.710;2023-11-18T13:15:23;19.35;;;10.55;;
67156;SDS011;54086;50.126;8.710;2023-11-18T13:17:56;20.80;;;11.23;;
67156;SDS011;54086;50.126;8.710;2023-11-18T13:20:26;20.27;;;10.90;;
67156;SDS011;54086;50.126;8.710;2023-11-18T13:22:51;22.77;;;11.40;;
67156;SDS011;54086;50.126;8.710;2023-11-18T13:25:20;20.80;;;10.73;;
67156;SDS011;54086;50.126;8.710;2023-11-18T13:27:46;20.90;;;10.47;;
67156;SDS011;54086;50.126;8.710;2023-11-18T13:30:12;20.90;;;10.70;;
67156;SDS011;54086;50.126;8.710;2023-11-18T13:32:41;18.73;;;9.90;;
67156;SDS011;54086;50.126;8.710;2023-11-18T13:35:08;19.85;;;10.43;;
67156;SDS011;54086;50.126;8.710;2023-11-18T13:37:33;19.05;;;10.32;;
67156;SDS011;54086;50.126;8.710;2023-11-18T13:39:59;20.27;;;10.93;;
67156;SDS011;54086;50.126;8.710;2023-11-18T13:42:25;21.63;;;10.43;;
67156;SDS011;54086;50.126;8.710;2023-11-18T13:44:53;17.83;;;10.07;;
67156;SDS011;54086;50.126;8.710;2023-11-18T13:47:25;22.27;;;11.10;;
67156;SDS011;54086;50.126;8.710;2023-11-18T13:49:53;21.35;;;10.57;;
67156;SDS011;54086;50.126;8.710;2023-11-18T13:52:19;20.85;;;11.05;;
67156;SDS011;54086;50.126;8.710;2023-11-18T13:54:46;20.75;;;10.30;;
67156;SDS011;54086;50.126;8.710;2023-11-18T13:57:13;19.90;;;10.85;;
67156;SDS011;54086;50.126;8.710;2023-11-18T13:59:38;18.63;;;9.50;;
67156;SDS011;54086;50.126;8.710;2023-11-18T14:02:04;20.42;;;9.95;;
67156;SDS011;54086;50.126;8.710;2023-11-18T14:04:30;19.30;;;10.30;;
67156;SDS011;54086;50.126;8.710;2023-11-18T14:07:02;18.73;;;10.18;;
67156;SDS011;54086;50.126;8.710;2023-11-18T14:09:30;21.53;;;10.67;;
67156;SDS011;54086;50.126;8.710;2023-11-18T14:12:01;19.45;;;10.50;;
67156;SDS011;54086;50.126;8.710;2023-11-18T14:14:28;20.75;;;10.45;;
67156;SDS011;54086;50.126;8.710;2023-11-18T14:16:54;19.20;;;10.02;;
67156;SDS011;54086;50.126;8.710;2023-11-18T14:19:23;19.30;;;10.40;;
67156;SDS011;54086;50.126;8.710;2023-11-18T14:21:50;17.97;;;8.90;;
67156;SDS011;54086;50.126;8.710;2023-11-18T14:24:19;18.90;;;9.43;;
67156;SDS011;54086;50.126;8.710;2023-11-18T14:26:45;22.40;;;10.45;;
67156;SDS011;54086;50.126;8.710;2023-11-18T14:29:10;20.25;;;9.95;;
67156;SDS011;54086;50.126;8.710;2023-11-18T14:31:38;17.93;;;8.50;;
67156;SDS011;54086;50.126;8.710;2023-11-18T14:34:04;16.23;;;8.85;;
67156;SDS011;54086;50.126;8.710;2023-11-18T14:36:30;16.37;;;8.43;;
67156;SDS011;54086;50.126;8.710;2023-11-18T14:38:56;15.48;;;8.23;;
67156;SDS011;54086;50.126;8.710;2023-11-18T14:41:23;14.98;;;8.02;;
67156;SDS011;54086;50.126;8.710;2023-11-18T14:43:51;14.83;;;7.43;;
67156;SDS011;54086;50.126;8.710;2023-11-18T14:46:18;15.40;;;7.82;;
67156;SDS011;54086;50.126;8.710;2023-11-18T14:48:44;16.23;;;7.78;;
67156;SDS011;54086;50.126;8.710;2023-11-18T14:51:10;12.30;;;6.83;;